sensor_id;sensor_type;location;lat;lon;timestamp;pressure;altitude;pressure_sealevel;temperature;humidity
10462;BME280;5278;42.656;23.374;2023-04-08T00:00:56;94700.34;;;8.12;65.81
10462;BME280;5278;42.656;23.374;2023-04-08T00:03:23;94701.47;;;8.76;86.04
10462;BME280;5278;42.656;23.374;2023-04-08T00:05:49;94687.53;;;10.96;89.38
10462;BME280;5278;42.656;23.374;2023-04-08T00:08:16;94691.59;;;12.45;81.63
10462;BME280;5278;42.656;23.374;2023-04-08T00:10:43;94671.03;;;14.17;67.48
10462;BME280;5278;42.656;23.374;2023-04-08T00:13:11;94681.75;;;15.68;56.25
10462;BME280;5278;42.656;23.374;2023-04-08T00:15:41;94678.03;;;16.53;50.03
10462;BME280;5278;42.656;23.374;2023-04-08T00:18:08;94679.22;;;16.95;46.24
10462;BME280;5278;42.656;23.374;2023-04-08T00:20:35;94676.78;;;17.50;43.48
10462;BME280;5278;42.656;23.374;2023-04-08T00:23:02;94680.97;;;17.82;41.08
10462;BME280;5278;42.656;23.374;2023-04-08T00:25:30;94675.06;;;18.05;40.29
10462;BME280;5278;42.656;23.374;2023-04-08T00:27:57;94648.84;;;18.17;38.85
10462;BME280;5278;42.656;23.374;2023-04-08T00:30:23;94672.75;;;18.63;37.77
10462;BME280;5278;42.656;23.374;2023-04-08T00:32:53;94675.81;;;18.78;37.16
10462;BME280;5278;42.656;23.374;2023-04-08T00:35:20;94666.75;;;18.74;36.75
10462;BME280;5278;42.656;23.374;2023-04-08T00:37:47;94679.91;;;18.08;33.61
10462;BME280;5278;42.656;23.374;2023-04-08T00:40:14;94679.81;;;16.66;35.62
10462;BME280;5278;42.656;23.374;2023-04-08T00:42:41;94688.19;;;15.13;38.07
10462;BME280;5278;42.656;23.374;2023-04-08T00:45:09;94736.81;;;13.37;41.28
10462;BME280;5278;42.656;23.374;2023-04-08T00:47:36;94710.63;;;12.60;43.96
10462;BME280;5278;42.656;23.374;2023-04-08T00:50:07;94712.84;;;11.69;47.12
10462;BME280;5278;42.656;23.374;2023-04-08T00:52:33;94705.47;;;11.05;49.89
10462;BME280;5278;42.656;23.374;2023-04-08T00:55:01;94712.03;;;10.48;52.30
10462;BME280;5278;42.656;23.374;2023-04-08T00:57:28;94696.75;;;9.91;54.83
10462;BME280;5278;42.656;23.374;2023-04-08T00:59:55;94717.63;;;9.50;56.89
10462;BME280;5278;42.656;23.374;2023-04-08T01:02:40;94727.72;;;9.21;59.00
10462;BME280;5278;42.656;23.374;2023-04-08T01:05:13;94718.31;;;8.88;61.03
10462;BME280;5278;42.656;23.374;2023-04-08T01:07:48;94720.91;;;8.72;62.02
10462;BME280;5278;42.656;23.374;2023-04-08T01:10:26;94722.50;;;8.56;62.66
10462;BME280;5278;42.656;23.374;2023-04-08T01:12:57;94721.47;;;8.33;63.89
10462;BME280;5278;42.656;23.374;2023-04-08T01:15:25;94686.59;;;8.03;64.55
10462;BME280;5278;42.656;23.374;2023-04-08T01:17:54;94724.78;;;8.17;65.25
10462;BME280;5278;42.656;23.374;2023-04-08T01:20:25;94723.63;;;8.04;65.57
10462;BME280;5278;42.656;23.374;2023-04-08T01:23:02;94717.47;;;7.97;66.39
10462;BME280;5278;42.656;23.374;2023-04-08T01:25:34;94718.72;;;7.93;66.83
10462;BME280;5278;42.656;23.374;2023-04-08T01:28:06;94634.28;;;7.33;67.45
10462;BME280;5278;42.656;23.374;2023-04-08T01:30:34;94700.72;;;7.75;66.61
10462;BME280;5278;42.656;23.374;2023-04-08T01:33:06;94715.97;;;7.86;66.80
10462;BME280;5278;42.656;23.374;2023-04-08T01:35:36;94717.63;;;7.95;66.65
10462;BME280;5278;42.656;23.374;2023-04-08T01:38:06;94718.91;;;7.91;66.70
10462;BME280;5278;42.656;23.374;2023-04-08T01:40:34;94718.69;;;7.85;67.21
10462;BME280;5278;42.656;23.374;2023-04-08T01:43:07;94724.38;;;7.88;67.20
10462;BME280;5278;42.656;23.374;2023-04-08T01:45:34;94721.28;;;7.85;67.10
10462;BME280;5278;42.656;23.374;2023-04-08T01:48:02;94719.66;;;7.84;66.30
10462;BME280;5278;42.656;23.374;2023-04-08T01:50:30;94729.50;;;7.80;66.41
10462;BME280;5278;42.656;23.374;2023-04-08T01:52:59;94733.53;;;7.83;65.94
10462;BME280;5278;42.656;23.374;2023-04-08T01:55:27;94735.19;;;7.84;65.63
10462;BME280;5278;42.656;23.374;2023-04-08T01:57:58;94726.59;;;7.75;65.84
10462;BME280;5278;42.656;23.374;2023-04-08T02:00:28;94740.31;;;7.75;65.91
10462;BME280;5278;42.656;23.374;2023-04-08T02:02:56;94712.88;;;7.49;66.15
10462;BME280;5278;42.656;23.374;2023-04-08T02:05:25;94734.81;;;7.70;66.46
10462;BME280;5278;42.656;23.374;2023-04-08T02:07:52;94739.47;;;7.67;67.06
10462;BME280;5278;42.656;23.374;2023-04-08T02:10:19;94740.91;;;7.61;67.79
10462;BME280;5278;42.656;23.374;2023-04-08T02:12:46;94749.91;;;7.57;68.25
10462;BME280;5278;42.656;23.374;2023-04-08T02:15:15;94735.53;;;7.29;67.70
10462;BME280;5278;42.656;23.374;2023-04-08T02:17:45;94752.75;;;7.46;67.87
10462;BME280;5278;42.656;23.374;2023-04-08T02:20:17;94750.63;;;7.42;67.12
10462;BME280;5278;42.656;23.374;2023-04-08T02:22:47;94745.63;;;7.40;67.32
10462;BME280;5278;42.656;23.374;2023-04-08T02:25:16;94746.53;;;7.31;67.51
10462;BME280;5278;42.656;23.374;2023-04-08T02:27:50;94747.84;;;7.35;67.58
10462;BME280;5278;42.656;23.374;2023-04-08T02:30:18;94743.16;;;7.39;67.44
10462;BME280;5278;42.656;23.374;2023-04-08T02:32:47;94749.50;;;7.44;67.22
10462;BME280;5278;42.656;23.374;2023-04-08T02:35:16;94745.97;;;7.45;66.69
10462;BME280;5278;42.656;23.374;2023-04-08T02:37:45;94656.69;;;6.73;66.88
10462;BME280;5278;42.656;23.374;2023-04-08T02:40:25;94746.56;;;7.39;67.34
10462;BME280;5278;42.656;23.374;2023-04-08T02:42:53;94755.94;;;7.40;67.27
10462;BME280;5278;42.656;23.374;2023-04-08T02:45:20;94752.22;;;7.43;67.58
10462;BME280;5278;42.656;23.374;2023-04-08T02:47:48;94744.34;;;7.44;67.29
10462;BME280;5278;42.656;23.374;2023-04-08T02:50:15;94744.03;;;7.47;67.11
10462;BME280;5278;42.656;23.374;2023-04-08T02:52:42;94724.53;;;7.27;67.09
10462;BME280;5278;42.656;23.374;2023-04-08T02:55:09;94748.56;;;7.45;67.48
10462;BME280;5278;42.656;23.374;2023-04-08T02:57:37;94749.16;;;7.39;67.78
10462;BME280;5278;42.656;23.374;2023-04-08T03:00:06;94747.97;;;7.33;68.05
10462;BME280;5278;42.656;23.374;2023-04-08T03:02:33;94753.09;;;7.25;68.59
10462;BME280;5278;42.656;23.374;2023-04-08T03:05:01;94750.16;;;7.20;68.91
10462;BME280;5278;42.656;23.374;2023-04-08T03:07:29;94716.25;;;6.98;69.02
10462;BME280;5278;42.656;23.374;2023-04-08T03:09:56;94749.72;;;7.25;68.89
10462;BME280;5278;42.656;23.374;2023-04-08T03:12:23;94770.16;;;7.18;69.12
10462;BME280;5278;42.656;23.374;2023-04-08T03:14:51;94741.75;;;7.18;69.06
10462;BME280;5278;42.656;23.374;2023-04-08T03:17:18;94751.34;;;7.26;68.84
10462;BME280;5278;42.656;23.374;2023-04-08T03:19:45;94749.25;;;7.29;68.70
10462;BME280;5278;42.656;23.374;2023-04-08T03:22:13;94726.41;;;7.17;68.62
10462;BME280;5278;42.656;23.374;2023-04-08T03:24:40;94745.72;;;7.30;68.10
10462;BME280;5278;42.656;23.374;2023-04-08T03:27:07;94750.28;;;7.37;67.77
10462;BME280;5278;42.656;23.374;2023-04-08T03:29:34;94752.66;;;7.30;68.38
10462;BME280;5278;42.656;23.374;2023-04-08T03:32:01;94748.31;;;7.30;68.87
10462;BME280;5278;42.656;23.374;2023-04-08T03:34:27;94740.03;;;7.27;68.49
10462;BME280;5278;42.656;23.374;2023-04-08T03:36:54;94754.78;;;7.34;68.88
10462;BME280;5278;42.656;23.374;2023-04-08T03:39:22;94755.63;;;7.43;68.19
10462;BME280;5278;42.656;23.374;2023-04-08T03:41:49;94757.25;;;7.44;67.90
10462;BME280;5278;42.656;23.374;2023-04-08T03:44:16;94756.63;;;7.42;68.28
10462;BME280;5278;42.656;23.374;2023-04-08T03:46:43;94760.66;;;7.45;67.53
10462;BME280;5278;42.656;23.374;2023-04-08T03:49:10;94743.25;;;7.47;67.44
10462;BME280;5278;42.656;23.374;2023-04-08T03:51:37;94752.75;;;7.46;67.13
10462;BME280;5278;42.656;23.374;2023-04-08T03:54:04;94753.59;;;7.47;67.03
10462;BME280;5278;42.656;23.374;2023-04-08T03:56:33;94751.94;;;7.46;67.38
10462;BME280;5278;42.656;23.374;2023-04-08T03:59:00;94756.94;;;7.47;67.19
10462;BME280;5278;42.656;23.374;2023-04-08T04:01:27;94753.03;;;7.43;67.11
10462;BME280;5278;42.656;23.374;2023-04-08T04:03:54;94747.06;;;7.43;67.66
10462;BME280;5278;42.656;23.374;2023-04-08T04:06:21;94754.47;;;7.38;67.84
10462;BME280;5278;42.656;23.374;2023-04-08T04:08:48;94748.50;;;7.37;68.25
10462;BME280;5278;42.656;23.374;2023-04-08T04:11:15;94740.47;;;7.22;68.74
10462;BME280;5278;42.656;23.374;2023-04-08T04:13:44;94745.34;;;7.25;69.41
10462;BME280;5278;42.656;23.374;2023-04-08T04:16:10;94752.28;;;7.25;69.49
10462;BME280;5278;42.656;23.374;2023-04-08T04:18:37;94749.84;;;7.23;69.76
10462;BME280;5278;42.656;23.374;2023-04-08T04:21:04;94759.72;;;7.28;69.07
10462;BME280;5278;42.656;23.374;2023-04-08T04:23:32;94762.78;;;7.23;69.24
10462;BME280;5278;42.656;23.374;2023-04-08T04:25:59;94762.16;;;7.29;69.38
10462;BME280;5278;42.656;23.374;2023-04-08T04:28:26;94761.50;;;7.27;70.19
10462;BME280;5278;42.656;23.374;2023-04-08T04:30:54;94766.84;;;7.26;70.59
10462;BME280;5278;42.656;23.374;2023-04-08T04:33:20;94763.59;;;7.24;70.62
10462;BME280;5278;42.656;23.374;2023-04-08T04:35:47;94764.53;;;7.23;71.00
10462;BME280;5278;42.656;23.374;2023-04-08T04:38:14;94765.88;;;7.27;69.81
10462;BME280;5278;42.656;23.374;2023-04-08T04:40:41;94765.22;;;7.25;69.22
10462;BME280;5278;42.656;23.374;2023-04-08T04:43:09;94766.16;;;7.24;69.25
10462;BME280;5278;42.656;23.374;2023-04-08T04:45:35;94764.72;;;7.21;69.47
10462;BME280;5278;42.656;23.374;2023-04-08T04:48:04;94767.13;;;7.23;69.36
10462;BME280;5278;42.656;23.374;2023-04-08T04:50:31;94743.09;;;7.05;69.22
10462;BME280;5278;42.656;23.374;2023-04-08T04:52:58;94769.19;;;7.19;69.07
10462;BME280;5278;42.656;23.374;2023-04-08T04:55:25;94652.97;;;6.50;68.97
10462;BME280;5278;42.656;23.374;2023-04-08T04:57:52;94767.06;;;7.15;69.18
10462;BME280;5278;42.656;23.374;2023-04-08T05:00:19;94767.78;;;7.25;68.98
10462;BME280;5278;42.656;23.374;2023-04-08T05:02:45;94779.31;;;7.30;68.34
10462;BME280;5278;42.656;23.374;2023-04-08T05:05:14;94779.34;;;7.39;68.27
10462;BME280;5278;42.656;23.374;2023-04-08T05:07:41;94779.56;;;7.45;68.38
10462;BME280;5278;42.656;23.374;2023-04-08T05:10:08;94702.72;;;7.04;67.92
10462;BME280;5278;42.656;23.374;2023-04-08T05:12:35;94760.25;;;7.57;67.33
10462;BME280;5278;42.656;23.374;2023-04-08T05:15:03;94764.19;;;7.69;66.88
10462;BME280;5278;42.656;23.374;2023-04-08T05:17:30;94767.63;;;7.78;66.71
10462;BME280;5278;42.656;23.374;2023-04-08T05:19:57;94773.00;;;7.85;66.55
10462;BME280;5278;42.656;23.374;2023-04-08T05:22:26;94768.69;;;7.93;66.12
10462;BME280;5278;42.656;23.374;2023-04-08T05:24:53;94773.38;;;7.98;66.38
10462;BME280;5278;42.656;23.374;2023-04-08T05:27:20;94774.59;;;8.11;66.04
10462;BME280;5278;42.656;23.374;2023-04-08T05:29:47;94770.28;;;8.28;65.85
10462;BME280;5278;42.656;23.374;2023-04-08T05:32:14;94765.50;;;8.41;66.01
10462;BME280;5278;42.656;23.374;2023-04-08T05:34:41;94770.72;;;8.57;66.45
10462;BME280;5278;42.656;23.374;2023-04-08T05:37:08;94768.50;;;8.79;66.39
10462;BME280;5278;42.656;23.374;2023-04-08T05:39:36;94768.66;;;8.85;65.63
10462;BME280;5278;42.656;23.374;2023-04-08T05:42:03;94767.69;;;8.94;64.81
10462;BME280;5278;42.656;23.374;2023-04-08T05:44:30;94757.16;;;9.12;64.24
10462;BME280;5278;42.656;23.374;2023-04-08T05:46:57;94770.78;;;9.38;63.39
10462;BME280;5278;42.656;23.374;2023-04-08T05:49:24;94763.28;;;9.68;61.94
10462;BME280;5278;42.656;23.374;2023-04-08T05:51:51;94761.94;;;9.88;60.73
10462;BME280;5278;42.656;23.374;2023-04-08T05:54:18;94765.75;;;10.08;59.58
10462;BME280;5278;42.656;23.374;2023-04-08T05:56:46;94760.25;;;10.19;58.64
10462;BME280;5278;42.656;23.374;2023-04-08T05:59:13;94763.28;;;10.31;58.09
10462;BME280;5278;42.656;23.374;2023-04-08T06:01:40;94752.97;;;10.46;57.67
10462;BME280;5278;42.656;23.374;2023-04-08T06:04:07;94758.78;;;10.48;57.43
10462;BME280;5278;42.656;23.374;2023-04-08T06:06:36;94752.78;;;10.47;57.28
10462;BME280;5278;42.656;23.374;2023-04-08T06:09:04;94760.38;;;10.57;55.92
10462;BME280;5278;42.656;23.374;2023-04-08T06:11:31;94760.72;;;10.54;56.26
10462;BME280;5278;42.656;23.374;2023-04-08T06:13:59;94756.56;;;10.36;56.69
10462;BME280;5278;42.656;23.374;2023-04-08T06:16:26;94754.06;;;10.20;57.96
10462;BME280;5278;42.656;23.374;2023-04-08T06:18:53;94730.47;;;9.83;59.18
10462;BME280;5278;42.656;23.374;2023-04-08T06:21:20;94764.88;;;9.85;61.03
10462;BME280;5278;42.656;23.374;2023-04-08T06:23:48;94768.94;;;9.79;61.91
10462;BME280;5278;42.656;23.374;2023-04-08T06:26:14;94752.91;;;9.76;61.70
10462;BME280;5278;42.656;23.374;2023-04-08T06:28:42;94761.97;;;9.80;62.23
10462;BME280;5278;42.656;23.374;2023-04-08T06:31:10;94758.31;;;9.97;62.42
10462;BME280;5278;42.656;23.374;2023-04-08T06:33:37;94743.34;;;10.15;61.78
10462;BME280;5278;42.656;23.374;2023-04-08T06:36:05;94760.94;;;10.44;60.48
10462;BME280;5278;42.656;23.374;2023-04-08T06:38:33;94760.34;;;10.65;59.85
10462;BME280;5278;42.656;23.374;2023-04-08T06:41:03;94750.25;;;10.70;59.56
10462;BME280;5278;42.656;23.374;2023-04-08T06:43:30;94753.53;;;10.87;58.93
10462;BME280;5278;42.656;23.374;2023-04-08T06:45:57;94764.69;;;10.95;59.12
10462;BME280;5278;42.656;23.374;2023-04-08T06:48:25;94761.06;;;11.04;58.50
10462;BME280;5278;42.656;23.374;2023-04-08T06:50:54;94765.22;;;11.13;58.94
10462;BME280;5278;42.656;23.374;2023-04-08T06:53:21;94764.28;;;11.06;59.16
10462;BME280;5278;42.656;23.374;2023-04-08T06:55:49;94766.25;;;11.04;58.35
10462;BME280;5278;42.656;23.374;2023-04-08T06:58:16;94772.00;;;10.92;58.96
10462;BME280;5278;42.656;23.374;2023-04-08T07:00:43;94770.63;;;10.81;60.26
10462;BME280;5278;42.656;23.374;2023-04-08T07:03:10;94764.44;;;10.82;61.07
10462;BME280;5278;42.656;23.374;2023-04-08T07:05:38;94666.56;;;10.29;61.03
10462;BME280;5278;42.656;23.374;2023-04-08T07:08:06;94686.44;;;10.45;60.55
10462;BME280;5278;42.656;23.374;2023-04-08T07:10:33;94766.59;;;11.01;60.22
10462;BME280;5278;42.656;23.374;2023-04-08T07:13:01;94764.28;;;11.06;60.51
10462;BME280;5278;42.656;23.374;2023-04-08T07:15:27;94774.66;;;11.06;58.29
10462;BME280;5278;42.656;23.374;2023-04-08T07:17:55;94771.38;;;11.12;58.11
10462;BME280;5278;42.656;23.374;2023-04-08T07:20:23;94765.78;;;11.23;58.34
10462;BME280;5278;42.656;23.374;2023-04-08T07:22:51;94772.81;;;11.38;58.03
10462;BME280;5278;42.656;23.374;2023-04-08T07:25:18;94766.59;;;12.85;83.07
10462;BME280;5278;42.656;23.374;2023-04-08T07:27:45;94760.72;;;14.24;68.81
10462;BME280;5278;42.656;23.374;2023-04-08T07:30:12;94766.94;;;15.38;56.37
10462;BME280;5278;42.656;23.374;2023-04-08T07:32:39;94749.94;;;16.32;48.72
10462;BME280;5278;42.656;23.374;2023-04-08T07:35:06;94753.22;;;17.17;44.32
10462;BME280;5278;42.656;23.374;2023-04-08T07:37:33;94758.84;;;17.52;42.73
10462;BME280;5278;42.656;23.374;2023-04-08T07:40:02;94758.66;;;18.03;41.10
10462;BME280;5278;42.656;23.374;2023-04-08T07:42:28;94759.47;;;18.58;39.53
10462;BME280;5278;42.656;23.374;2023-04-08T07:44:56;94753.28;;;19.01;37.82
10462;BME280;5278;42.656;23.374;2023-04-08T07:47:23;94763.38;;;19.33;36.59
10462;BME280;5278;42.656;23.374;2023-04-08T07:49:50;94757.41;;;19.56;36.00
10462;BME280;5278;42.656;23.374;2023-04-08T07:52:16;94756.38;;;19.69;35.57
10462;BME280;5278;42.656;23.374;2023-04-08T07:54:43;94761.25;;;20.07;35.04
10462;BME280;5278;42.656;23.374;2023-04-08T07:57:12;94704.09;;;19.89;34.33
10462;BME280;5278;42.656;23.374;2023-04-08T07:59:38;94769.44;;;20.69;33.92
10462;BME280;5278;42.656;23.374;2023-04-08T08:02:06;94764.38;;;20.79;33.38
10462;BME280;5278;42.656;23.374;2023-04-08T08:04:32;94766.66;;;20.87;33.27
10462;BME280;5278;42.656;23.374;2023-04-08T08:06:59;94753.19;;;20.88;32.76
10462;BME280;5278;42.656;23.374;2023-04-08T08:09:26;94774.91;;;20.90;32.89
10462;BME280;5278;42.656;23.374;2023-04-08T08:11:53;94687.00;;;20.15;32.98
10462;BME280;5278;42.656;23.374;2023-04-08T08:14:21;94773.63;;;20.93;32.96
10462;BME280;5278;42.656;23.374;2023-04-08T08:16:49;94773.03;;;21.14;32.22
10462;BME280;5278;42.656;23.374;2023-04-08T08:19:18;94769.78;;;21.12;32.23
10462;BME280;5278;42.656;23.374;2023-04-08T08:21:45;94762.97;;;21.28;32.04
10462;BME280;5278;42.656;23.374;2023-04-08T08:24:12;94768.16;;;21.51;31.91
10462;BME280;5278;42.656;23.374;2023-04-08T08:26:39;94769.22;;;21.67;31.24
10462;BME280;5278;42.656;23.374;2023-04-08T08:29:06;94773.31;;;21.91;30.98
10462;BME280;5278;42.656;23.374;2023-04-08T08:31:34;94774.59;;;21.88;31.04
10462;BME280;5278;42.656;23.374;2023-04-08T08:34:01;94777.69;;;21.69;31.66
10462;BME280;5278;42.656;23.374;2023-04-08T08:36:28;94774.34;;;21.57;31.27
10462;BME280;5278;42.656;23.374;2023-04-08T08:38:55;94778.56;;;20.49;33.23
10462;BME280;5278;42.656;23.374;2023-04-08T08:41:22;94784.06;;;20.01;33.48
10462;BME280;5278;42.656;23.374;2023-04-08T08:43:49;94792.84;;;18.82;35.40
10462;BME280;5278;42.656;23.374;2023-04-08T08:46:16;94789.50;;;17.89;37.25
10462;BME280;5278;42.656;23.374;2023-04-08T08:48:45;94786.09;;;17.19;38.70
10462;BME280;5278;42.656;23.374;2023-04-08T08:51:12;94785.56;;;16.60;39.94
10462;BME280;5278;42.656;23.374;2023-04-08T08:53:39;94798.34;;;16.36;40.86
10462;BME280;5278;42.656;23.374;2023-04-08T08:56:09;94789.91;;;16.21;41.66
10462;BME280;5278;42.656;23.374;2023-04-08T08:58:43;94714.78;;;15.63;42.22
10462;BME280;5278;42.656;23.374;2023-04-08T09:01:30;94808.88;;;15.90;43.27
10462;BME280;5278;42.656;23.374;2023-04-08T09:04:08;94799.97;;;15.39;44.45
10462;BME280;5278;42.656;23.374;2023-04-08T09:06:35;94808.34;;;15.15;45.46
10462;BME280;5278;42.656;23.374;2023-04-08T09:09:02;94799.69;;;15.01;46.26
10462;BME280;5278;42.656;23.374;2023-04-08T09:11:35;94815.94;;;14.42;47.57
10462;BME280;5278;42.656;23.374;2023-04-08T09:14:02;94812.34;;;14.50;47.69
10462;BME280;5278;42.656;23.374;2023-04-08T09:16:31;94794.53;;;14.67;47.59
10462;BME280;5278;42.656;23.374;2023-04-08T09:19:08;94800.44;;;14.88;46.44
10462;BME280;5278;42.656;23.374;2023-04-08T09:21:37;94800.06;;;14.91;45.59
10462;BME280;5278;42.656;23.374;2023-04-08T09:24:06;94802.81;;;14.77;47.33
10462;BME280;5278;42.656;23.374;2023-04-08T09:26:34;94813.16;;;14.98;46.93
10462;BME280;5278;42.656;23.374;2023-04-08T09:29:03;94799.31;;;15.17;46.47
10462;BME280;5278;42.656;23.374;2023-04-08T09:31:32;94816.00;;;15.09;46.77
10462;BME280;5278;42.656;23.374;2023-04-08T09:34:10;94801.75;;;15.19;46.10
10462;BME280;5278;42.656;23.374;2023-04-08T09:36:38;94793.75;;;15.60;45.28
10462;BME280;5278;42.656;23.374;2023-04-08T09:39:05;94782.06;;;16.79;43.07
10462;BME280;5278;42.656;23.374;2023-04-08T09:41:33;94778.22;;;18.07;39.14
10462;BME280;5278;42.656;23.374;2023-04-08T09:44:03;94770.59;;;19.38;36.60
10462;BME280;5278;42.656;23.374;2023-04-08T09:46:32;94755.75;;;21.23;33.24
10462;BME280;5278;42.656;23.374;2023-04-08T09:49:05;94755.16;;;22.71;30.01
10462;BME280;5278;42.656;23.374;2023-04-08T09:51:37;94752.34;;;23.80;28.89
10462;BME280;5278;42.656;23.374;2023-04-08T09:54:10;94744.81;;;24.41;27.86
10462;BME280;5278;42.656;23.374;2023-04-08T09:56:42;94759.06;;;24.72;27.31
10462;BME280;5278;42.656;23.374;2023-04-08T09:59:13;94756.06;;;25.05;26.56
10462;BME280;5278;42.656;23.374;2023-04-08T10:01:45;94756.44;;;25.54;26.15
10462;BME280;5278;42.656;23.374;2023-04-08T10:04:14;94731.44;;;26.01;25.08
10462;BME280;5278;42.656;23.374;2023-04-08T10:06:44;94740.44;;;25.29;25.79
10462;BME280;5278;42.656;23.374;2023-04-08T10:09:16;94739.31;;;25.05;26.12
10462;BME280;5278;42.656;23.374;2023-04-08T10:11:43;94732.47;;;25.44;26.13
10462;BME280;5278;42.656;23.374;2023-04-08T10:14:10;94735.88;;;25.19;25.83
10462;BME280;5278;42.656;23.374;2023-04-08T10:16:37;94731.28;;;24.95;26.20
10462;BME280;5278;42.656;23.374;2023-04-08T10:19:36;94730.06;;;23.49;27.75
10462;BME280;5278;42.656;23.374;2023-04-08T10:22:45;94745.63;;;21.65;29.43
10462;BME280;5278;42.656;23.374;2023-04-08T10:25:29;94740.00;;;20.25;32.00
10462;BME280;5278;42.656;23.374;2023-04-08T10:27:57;94744.81;;;18.99;34.39
10462;BME280;5278;42.656;23.374;2023-04-08T10:30:40;94751.47;;;18.10;35.86
10462;BME280;5278;42.656;23.374;2023-04-08T10:33:09;94756.56;;;17.31;37.82
10462;BME280;5278;42.656;23.374;2023-04-08T10:35:37;94757.69;;;16.72;39.56
10462;BME280;5278;42.656;23.374;2023-04-08T10:38:07;94753.06;;;16.54;40.11
10462;BME280;5278;42.656;23.374;2023-04-08T10:40:35;94658.63;;;16.16;39.78
10462;BME280;5278;42.656;23.374;2023-04-08T10:43:03;94737.53;;;16.66;39.83
10462;BME280;5278;42.656;23.374;2023-04-08T10:45:30;94734.91;;;16.59;40.38
10462;BME280;5278;42.656;23.374;2023-04-08T10:48:11;94705.00;;;16.22;41.32
10462;BME280;5278;42.656;23.374;2023-04-08T10:50:38;94739.22;;;16.34;42.26
10462;BME280;5278;42.656;23.374;2023-04-08T10:53:05;94730.78;;;16.32;42.70
10462;BME280;5278;42.656;23.374;2023-04-08T10:55:34;94731.91;;;16.49;41.77
10462;BME280;5278;42.656;23.374;2023-04-08T10:58:05;94732.13;;;17.23;39.93
10462;BME280;5278;42.656;23.374;2023-04-08T11:00:34;94719.34;;;17.83;37.80
10462;BME280;5278;42.656;23.374;2023-04-08T11:03:01;94716.63;;;18.15;36.84
10462;BME280;5278;42.656;23.374;2023-04-08T11:05:28;94709.25;;;19.08;36.01
10462;BME280;5278;42.656;23.374;2023-04-08T11:07:56;94711.75;;;19.14;34.67
10462;BME280;5278;42.656;23.374;2023-04-08T11:10:23;94709.28;;;18.89;35.18
10462;BME280;5278;42.656;23.374;2023-04-08T11:12:53;94699.97;;;18.21;35.34
10462;BME280;5278;42.656;23.374;2023-04-08T11:15:20;94714.03;;;18.33;35.29
10462;BME280;5278;42.656;23.374;2023-04-08T11:17:47;94698.75;;;18.89;33.69
10462;BME280;5278;42.656;23.374;2023-04-08T11:20:16;94696.63;;;19.63;33.60
10462;BME280;5278;42.656;23.374;2023-04-08T11:22:43;94692.75;;;20.12;32.85
10462;BME280;5278;42.656;23.374;2023-04-08T11:25:10;94698.94;;;20.69;31.04
10462;BME280;5278;42.656;23.374;2023-04-08T11:27:38;94689.97;;;20.30;31.13
10462;BME280;5278;42.656;23.374;2023-04-08T11:30:08;94701.13;;;19.21;33.56
10462;BME280;5278;42.656;23.374;2023-04-08T11:32:37;94695.09;;;18.42;35.14
10462;BME280;5278;42.656;23.374;2023-04-08T11:35:05;94688.25;;;17.80;36.27
10462;BME280;5278;42.656;23.374;2023-04-08T11:37:36;94697.34;;;17.59;36.09
10462;BME280;5278;42.656;23.374;2023-04-08T11:40:07;94696.91;;;18.05;35.69
10462;BME280;5278;42.656;23.374;2023-04-08T11:42:34;94675.72;;;18.85;33.65
10462;BME280;5278;42.656;23.374;2023-04-08T11:45:01;94683.59;;;19.56;32.85
10462;BME280;5278;42.656;23.374;2023-04-08T11:47:36;94683.16;;;19.29;32.01
10462;BME280;5278;42.656;23.374;2023-04-08T11:50:04;94675.72;;;18.85;33.29
10462;BME280;5278;42.656;23.374;2023-04-08T11:52:41;94681.19;;;18.72;34.28
10462;BME280;5278;42.656;23.374;2023-04-08T11:55:09;94683.38;;;17.84;35.06
10462;BME280;5278;42.656;23.374;2023-04-08T11:57:36;94692.66;;;16.29;38.37
10462;BME280;5278;42.656;23.374;2023-04-08T12:00:04;94680.13;;;15.61;40.32
10462;BME280;5278;42.656;23.374;2023-04-08T12:02:31;94707.53;;;15.52;41.03
10462;BME280;5278;42.656;23.374;2023-04-08T12:04:59;94701.84;;;14.95;42.67
10462;BME280;5278;42.656;23.374;2023-04-08T12:07:27;94672.69;;;14.98;42.96
10462;BME280;5278;42.656;23.374;2023-04-08T12:09:54;94669.84;;;15.79;41.55
10462;BME280;5278;42.656;23.374;2023-04-08T12:12:21;94673.75;;;16.14;40.52
10462;BME280;5278;42.656;23.374;2023-04-08T12:14:47;94670.75;;;16.04;40.43
10462;BME280;5278;42.656;23.374;2023-04-08T12:17:14;94667.31;;;16.10;39.99
10462;BME280;5278;42.656;23.374;2023-04-08T12:19:41;94666.00;;;15.81;38.96
10462;BME280;5278;42.656;23.374;2023-04-08T12:22:10;94663.81;;;15.39;40.37
10462;BME280;5278;42.656;23.374;2023-04-08T12:24:47;94674.69;;;15.36;40.07
10462;BME280;5278;42.656;23.374;2023-04-08T12:27:13;94662.19;;;15.44;39.93
10462;BME280;5278;42.656;23.374;2023-04-08T12:29:40;94689.78;;;15.40;41.02
10462;BME280;5278;42.656;23.374;2023-04-08T12:32:08;94554.94;;;14.52;41.71
10462;BME280;5278;42.656;23.374;2023-04-08T12:34:34;94659.56;;;15.44;41.53
10462;BME280;5278;42.656;23.374;2023-04-08T12:37:01;94648.31;;;15.31;41.73
10462;BME280;5278;42.656;23.374;2023-04-08T12:39:30;94640.25;;;15.32;41.25
10462;BME280;5278;42.656;23.374;2023-04-08T12:41:56;94651.53;;;15.13;41.63
10462;BME280;5278;42.656;23.374;2023-04-08T12:44:24;94656.97;;;14.92;43.31
10462;BME280;5278;42.656;23.374;2023-04-08T12:46:50;94653.66;;;14.50;45.44
10462;BME280;5278;42.656;23.374;2023-04-08T12:49:17;94666.38;;;14.12;47.18
10462;BME280;5278;42.656;23.374;2023-04-08T12:51:44;94649.31;;;13.75;49.43
10462;BME280;5278;42.656;23.374;2023-04-08T12:54:11;94646.22;;;13.93;49.21
10462;BME280;5278;42.656;23.374;2023-04-08T12:56:39;94652.06;;;14.02;49.97
10462;BME280;5278;42.656;23.374;2023-04-08T12:59:07;94648.81;;;13.93;49.64
10462;BME280;5278;42.656;23.374;2023-04-08T13:01:34;94635.66;;;14.14;48.44
10462;BME280;5278;42.656;23.374;2023-04-08T13:04:01;94633.09;;;14.34;48.19
10462;BME280;5278;42.656;23.374;2023-04-08T13:06:28;94644.41;;;14.41;46.51
10462;BME280;5278;42.656;23.374;2023-04-08T13:08:56;94644.59;;;14.40;46.22
10462;BME280;5278;42.656;23.374;2023-04-08T13:11:23;94639.75;;;14.37;45.97